Reno, NV

10:45 PM PDT on August 29, 2014 (GMT -0700)
Carson | Change Station
CLOSE
Current Station
Airport
Location: Carson City,
Elevation: 4705 ft
Nearby Weather Stations
Active Advisory: Fire Weather Warning

Elev 4705 ft 39.19 °N, 119.73 °W | Updated 10 minutes ago

Clear
Clear
75 °F
Feels Like 75 °F
N
7
Wind Variable Wind from WNW

Today
High -- | Low -- °F
--% Chance of Precip.
Yesterday
High -- | Low -- °F
Precip. -- in
6:24 AM 7:34 PM
Waxing Crescent, 19% visible
Pressure 30.07 in
Visibility 10.0 miles
Clouds Clear
Dew Point 30 °F
Humidity 19%
Rainfall 0.00 in
Snow Depth 0 in
UV 0 out of 12
Pollen 8.60 out of 12
Air Quality Not available.
Flu Activity Not available.
METAR KCXP 300535Z AUTO 29006KT 10SM CLR 24/M01 A3007 RMK AO2

More Conditions Fewer Conditions

Pressure 30.07 in
Visibility 10.0 miles
Clouds Clear
Dew Point 30 °F
Humidity 19%
Rainfall 0.00 in
Snow Depth 0 in
UV 0 out of 12
Pollen 8.60 out of 12
Air Quality Not available.
Flu Activity Not available.
METAR KCXP 300535Z AUTO 29006KT 10SM CLR 24/M01 A3007 RMK AO2

More Conditions Fewer Conditions

10-Day Weather Forecast

Almanac

Astronomy

Aug. 29, 2014 Rise Set
Actual Time 6:24 AM PDT 7:34 PM PDT
Civil Twilight 5:57 AM PDT 8:02 PM PDT
Nautical Twilight 5:23 AM PDT 8:35 PM PDT
Astronomical Twilight 4:49 AM PDT 9:09 PM PDT
Moon 10:17 AM PDT (8/29) 9:36 PM PDT (8/29)
Length of Visible Light 14h 05m
Length of Day
13h 09m
Tomorrow will be 2m 28s shorter.
Waxing Crescent, 19% of the Moon is Illuminated
Aug 30
Waxing Crescent
Sep 2
First Quarter
Sep 8
Full
Sep 15
Last Quarter
Sep 24
New

Yesterday's Extremes

State Highs State Lows

Community

WunderPhotos

Upload Photos

1,748,467 photos uploaded!

Nearby

Snow Depth

Station Depth Elevation
Mt. Rose Ski Area 0 in 8850 ft
Big Creek Summit 0 in 8700 ft
Sheldon 0 in 5860 ft
Lewis Peak 0 in 7400 ft
Lamance Creek 1 in 6000 ft

Earthquake Activity

City Distance Mag. Time & Date
No recent earthquake activity has been reported nearby.
Minimum magnitude displayed is 2.5.

Coastal Water Temperatures

Place Temperature
No Stations Reporting

Nearby Weather Stations